Time;durP1;ratioP1;P1;durP2;ratioP2;P2;SDS_P1;SDS_P2;PMS_P1;PMS_P2;Temp;Humidity;BMP_temperature;BMP_pressure;BME280_temperature;BME280_humidity;BME280_pressure;Samples;Min_cycle;Max_cycle;Signal;HPM_P1;HPM_P2
2022/03/13 00:00:42;;;;;;;21.20;12.93;;;4.00;99.90;;;;;;5134460;27;20493;-67
2022/03/13 00:03:11;;;;;;;20.30;11.70;;;3.90;99.90;;;;;;5134740;27;20521;-67
2022/03/13 00:05:40;;;;;;;26.83;11.80;;;3.90;99.90;;;;;;5134462;27;20533;-67
2022/03/13 00:08:18;;;;;;;21.47;10.70;;;3.70;99.90;;;;;;5134361;27;20489;-67
2022/03/13 00:10:47;;;;;;;17.23;11.20;;;3.60;99.90;;;;;;5133890;27;20647;-67
2022/03/13 00:13:16;;;;;;;18.50;11.83;;;3.50;99.90;;;;;;5134265;27;20982;-67
2022/03/13 00:15:44;;;;;;;21.13;14.07;;;3.50;1.00;;;;;;5134222;27;20881;-67
2022/03/13 00:18:13;;;;;;;18.50;12.40;;;3.80;99.90;;;;;;5133855;27;20446;-67
2022/03/13 00:20:40;;;;;;;24.27;13.00;;;3.80;99.90;;;;;;5133463;27;20516;-68
2022/03/13 00:23:08;;;;;;;15.40;11.20;;;3.60;99.90;;;;;;5134017;27;20475;-68
2022/03/13 00:25:35;;;;;;;20.70;12.80;;;3.50;99.90;;;;;;5134449;27;20504;-67
2022/03/13 00:28:03;;;;;;;17.50;12.63;;;3.50;1.00;;;;;;5134359;27;20482;-67
2022/03/13 00:30:30;;;;;;;19.00;11.83;;;3.60;1.00;;;;;;5133895;27;20457;-67
2022/03/13 00:33:00;;;;;;;18.57;12.33;;;3.50;1.00;;;;;;5134233;27;20481;-67
2022/03/13 00:35:28;;;;;;;19.10;13.00;;;3.70;99.90;;;;;;5133851;27;20446;-67
2022/03/13 00:37:56;;;;;;;24.40;11.57;;;3.70;99.90;;;;;;5120544;27;20503;-67
2022/03/13 00:40:23;;;;;;;23.67;15.80;;;3.40;99.90;;;;;;5134416;27;20489;-67
2022/03/13 00:42:50;;;;;;;22.70;13.57;;;3.30;1.00;;;;;;5134298;27;20449;-67
2022/03/13 00:45:17;;;;;;;21.87;14.07;;;3.40;1.00;;;;;;5133891;27;20456;-68
2022/03/13 00:47:44;;;;;;;18.23;12.70;;;3.50;99.90;;;;;;5132892;27;20445;-67
2022/03/13 00:50:11;;;;;;;20.33;13.27;;;3.30;99.90;;;;;;5133190;27;20544;-67
2022/03/13 00:52:39;;;;;;;18.00;12.43;;;3.30;1.00;;;;;;5133637;27;20529;-68
2022/03/13 00:55:07;;;;;;;20.00;11.50;;;3.40;1.00;;;;;;5133408;27;20486;-68
2022/03/13 00:57:34;;;;;;;15.97;10.50;;;3.30;1.00;;;;;;5133530;27;20458;-68
2022/03/13 01:00:02;;;;;;;21.57;14.23;;;3.20;1.00;;;;;;5133002;27;20481;-67
2022/03/13 01:02:29;;;;;;;20.00;12.90;;;3.10;1.00;;;;;;5132513;27;20486;-68
2022/03/13 01:04:55;;;;;;;21.17;11.67;;;3.00;1.00;;;;;;5133158;27;20446;-68
2022/03/13 01:07:22;;;;;;;21.10;11.20;;;3.00;1.00;;;;;;5134086;27;20470;-68
2022/03/13 01:09:51;;;;;;;21.63;13.43;;;3.10;1.00;;;;;;5133383;27;20457;-68
2022/03/13 01:12:17;;;;;;;26.90;14.07;;;3.10;1.00;;;;;;5133892;27;20443;-68
2022/03/13 01:14:44;;;;;;;23.20;13.90;;;3.10;1.00;;;;;;5133004;27;20446;-67
2022/03/13 01:17:12;;;;;;;18.10;12.40;;;3.00;1.00;;;;;;5133667;27;20477;-68
2022/03/13 01:19:39;;;;;;;25.80;13.80;;;3.10;1.00;;;;;;5132462;27;20458;-68
2022/03/13 01:22:06;;;;;;;21.40;13.87;;;3.10;1.00;;;;;;5133293;27;20524;-68
2022/03/13 01:24:43;;;;;;;24.00;12.63;;;3.00;1.00;;;;;;5132682;27;20439;-68
2022/03/13 01:27:13;;;;;;;23.00;13.17;;;3.20;1.00;;;;;;5133449;27;20441;-68
2022/03/13 01:29:41;;;;;;;22.60;14.63;;;3.00;1.00;;;;;;5132360;27;20521;-68
2022/03/13 01:32:10;;;;;;;23.97;14.07;;;2.90;1.00;;;;;;5133384;27;20532;-68
2022/03/13 01:34:41;;;;;;;22.27;12.80;;;2.80;1.00;;;;;;5132504;27;20519;-69
2022/03/13 01:37:13;;;;;;;25.87;14.73;;;2.70;1.00;;;;;;5133306;27;20441;-68
2022/03/13 01:39:40;;;;;;;20.50;13.13;;;2.60;56.80;;;;;;5132103;27;20445;-69
2022/03/13 01:42:08;;;;;;;23.53;14.00;;;2.60;41.30;;;;;;5133008;27;20455;-67
2022/03/13 01:44:36;;;;;;;20.87;12.50;;;2.60;99.90;;;;;;5131871;27;20935;-67
2022/03/13 01:47:05;;;;;;;22.07;13.27;;;2.50;52.70;;;;;;5132930;27;20557;-67
2022/03/13 01:49:32;;;;;;;19.90;12.93;;;2.50;98.60;;;;;;5132150;27;20447;-67
2022/03/13 01:51:59;;;;;;;19.60;13.00;;;2.60;68.40;;;;;;5132939;27;20453;-67
2022/03/13 01:54:26;;;;;;;21.00;14.83;;;2.50;1.00;;;;;;5132030;27;20505;-68
2022/03/13 01:56:53;;;;;;;20.47;14.10;;;2.50;32.90;;;;;;5132945;27;20481;-68
2022/03/13 01:59:22;;;;;;;18.50;12.57;;;2.50;58.20;;;;;;5132728;27;20453;-68
2022/03/13 02:01:50;;;;;;;22.83;13.43;;;2.50;99.90;;;;;;5131430;27;20490;-67
2022/03/13 02:04:25;;;;;;;19.83;13.80;;;2.50;14.80;;;;;;5132664;27;20450;-67
2022/03/13 02:06:53;;;;;;;20.63;13.83;;;2.50;81.20;;;;;;5132760;27;20450;-68
2022/03/13 02:09:20;;;;;;;21.77;13.10;;;2.50;99.90;;;;;;5132260;27;20439;-67
2022/03/13 02:11:49;;;;;;;26.93;13.87;;;2.50;1.00;;;;;;5132041;27;20793;-68
2022/03/13 02:14:20;;;;;;;19.57;11.17;;;2.60;1.00;;;;;;5132295;27;20458;-67
2022/03/13 02:16:48;;;;;;;18.80;13.90;;;2.40;1.00;;;;;;5118189;27;20449;-67
2022/03/13 02:19:17;;;;;;;18.47;12.83;;;2.40;1.00;;;;;;5131894;27;20860;-67
2022/03/13 02:21:48;;;;;;;18.10;12.03;;;2.50;1.00;;;;;;5131360;27;20539;-67
2022/03/13 02:24:17;;;;;;;20.73;12.50;;;2.50;1.00;;;;;;5131950;27;20444;-68
2022/03/13 02:26:54;;;;;;;20.93;13.53;;;2.50;1.00;;;;;;5131032;27;20541;-68
2022/03/13 02:29:21;;;;;;;19.90;13.60;;;2.50;1.00;;;;;;5131848;27;20455;-68
2022/03/13 02:31:48;;;;;;;17.50;10.50;;;2.70;1.00;;;;;;5131624;27;20457;-67
2022/03/13 02:34:15;;;;;;;19.93;11.73;;;2.40;1.00;;;;;;5131915;27;20444;-67
2022/03/13 02:37:01;;;;;;;19.13;12.80;;;2.50;1.00;;;;;;5131644;27;20443;-67
2022/03/13 02:39:35;;;;;;;21.03;11.53;;;2.70;1.00;;;;;;5117597;27;20454;-67
2022/03/13 02:42:02;;;;;;;20.20;14.63;;;2.60;1.00;;;;;;5131729;27;20584;-67
2022/03/13 02:44:29;;;;;;;21.93;11.53;;;2.50;1.00;;;;;;5131294;28;20511;-67
2022/03/13 02:46:58;;;;;;;22.20;13.33;;;2.50;1.00;;;;;;5131816;28;20455;-68
2022/03/13 02:49:28;;;;;;;17.63;11.77;;;2.40;1.00;;;;;;5131233;28;20460;-66
2022/03/13 02:51:58;;;;;;;23.97;13.37;;;2.40;1.00;;;;;;5131759;28;20491;-69
2022/03/13 02:54:25;;;;;;;18.10;11.50;;;2.60;1.00;;;;;;5131581;28;20496;-68
2022/03/13 02:56:54;;;;;;;21.57;13.00;;;2.50;1.00;;;;;;5132355;28;20460;-67
2022/03/13 02:59:21;;;;;;;18.60;11.10;;;2.50;1.00;;;;;;5131606;28;20452;-68
2022/03/13 03:01:49;;;;;;;15.67;11.77;;;2.40;1.00;;;;;;5130647;28;20986;-68
2022/03/13 03:04:16;;;;;;;18.83;11.13;;;2.20;1.00;;;;;;5131690;28;20473;-68
2022/03/13 03:06:54;;;;;;;17.87;11.73;;;2.20;1.00;;;;;;5130556;28;20456;-68
2022/03/13 03:09:21;;;;;;;25.60;13.00;;;2.20;1.00;;;;;;5131438;28;20449;-68
2022/03/13 03:11:48;;;;;;;18.00;12.13;;;2.10;1.00;;;;;;5131257;27;20779;-68
2022/03/13 03:14:18;;;;;;;18.53;11.43;;;2.10;1.00;;;;;;5135847;27;20528;-68
2022/03/13 03:16:45;;;;;;;20.00;11.73;;;2.30;1.00;;;;;;5135208;27;20453;-68
2022/03/13 03:19:12;;;;;;;26.77;14.03;;;2.40;1.00;;;;;;5135622;27;20456;-69
2022/03/13 03:21:39;;;;;;;19.13;11.67;;;2.30;1.00;;;;;;5134898;27;20506;-68
2022/03/13 03:24:15;;;;;;;18.03;11.50;;;2.30;1.00;;;;;;5135593;27;20503;-68
2022/03/13 03:26:43;;;;;;;21.20;14.07;;;2.30;1.00;;;;;;5122783;27;20537;-68
2022/03/13 03:29:10;;;;;;;19.40;12.57;;;2.20;1.00;;;;;;5135287;27;20451;-67
2022/03/13 03:31:43;;;;;;;14.80;11.07;;;2.30;1.00;;;;;;5135198;27;20530;-68
2022/03/13 03:34:13;;;;;;;18.40;10.80;;;2.30;1.00;;;;;;5135553;27;20485;-67
2022/03/13 03:36:44;;;;;;;17.40;10.70;;;2.20;1.00;;;;;;5134919;27;20524;-68
2022/03/13 03:39:12;;;;;;;20.90;10.70;;;2.30;1.00;;;;;;5134752;27;20473;-68
2022/03/13 03:41:42;;;;;;;17.80;10.00;;;2.30;1.00;;;;;;5134805;27;20485;-68
2022/03/13 03:44:09;;;;;;;19.97;10.83;;;2.40;1.00;;;;;;5135048;27;20445;-68
2022/03/13 03:46:36;;;;;;;17.83;11.10;;;2.40;1.00;;;;;;5134681;27;20493;-68
2022/03/13 03:49:05;;;;;;;18.80;11.33;;;2.20;1.00;;;;;;5134824;27;20869;-68
2022/03/13 03:51:32;;;;;;;18.17;11.40;;;2.10;1.00;;;;;;5134091;27;20538;-67
2022/03/13 03:53:59;;;;;;;17.37;10.93;;;2.20;1.00;;;;;;5134962;27;21004;-67
2022/03/13 03:56:26;;;;;;;18.83;11.23;;;2.20;1.00;;;;;;5134801;27;20811;-68
2022/03/13 03:58:53;;;;;;;21.00;10.20;;;2.30;1.00;;;;;;5134883;27;20452;-68
2022/03/13 04:01:20;;;;;;;18.03;11.07;;;2.30;1.00;;;;;;5134816;27;20481;-67
2022/03/13 04:03:47;;;;;;;17.70;10.40;;;2.30;1.00;;;;;;5133984;27;20460;-68
2022/03/13 04:06:16;;;;;;;19.57;11.27;;;2.40;1.00;;;;;;5134485;27;20520;-68
2022/03/13 04:08:43;;;;;;;14.60;10.33;;;2.50;1.00;;;;;;5120491;27;20464;-68
2022/03/13 04:11:10;;;;;;;13.50;11.17;;;2.50;1.00;;;;;;5134837;27;20503;-68
2022/03/13 04:13:38;;;;;;;17.60;10.73;;;2.30;1.00;;;;;;5133840;27;20449;-68
2022/03/13 04:16:08;;;;;;;16.47;12.00;;;2.30;1.00;;;;;;5134708;27;20458;-67
2022/03/13 04:18:35;;;;;;;21.70;11.33;;;2.50;1.00;;;;;;5133904;27;20495;-68
2022/03/13 04:21:03;;;;;;;18.57;11.80;;;2.40;1.00;;;;;;5134010;27;20579;-68
2022/03/13 04:23:32;;;;;;;14.97;10.13;;;2.20;1.00;;;;;;5132886;27;20551;-68
2022/03/13 04:25:59;;;;;;;15.43;10.70;;;2.10;1.00;;;;;;5134418;27;20550;-68
2022/03/13 04:28:26;;;;;;;15.80;10.20;;;1.90;1.00;;;;;;5133641;27;20448;-68
2022/03/13 04:30:53;;;;;;;19.50;11.00;;;1.90;1.00;;;;;;5134267;27;20447;-68
2022/03/13 04:33:21;;;;;;;19.47;12.43;;;2.00;1.00;;;;;;5134367;27;20445;-68
2022/03/13 04:35:48;;;;;;;22.07;10.23;;;2.00;1.00;;;;;;5133593;27;20866;-68
2022/03/13 04:38:15;;;;;;;19.37;10.17;;;2.00;1.00;;;;;;5133793;27;20458;-68
2022/03/13 04:40:43;;;;;;;14.30;10.77;;;1.90;1.00;;;;;;5133176;27;20964;-68
2022/03/13 04:43:10;;;;;;;21.33;12.23;;;2.10;1.00;;;;;;5134142;27;20533;-68
2022/03/13 04:45:37;;;;;;;16.30;11.43;;;2.20;1.00;;;;;;5133628;27;20450;-68
2022/03/13 04:48:05;;;;;;;20.40;12.00;;;2.50;1.00;;;;;;5133560;27;20462;-67
2022/03/13 04:50:32;;;;;;;19.43;11.50;;;2.90;99.90;;;;;;5133415;27;20481;-67
2022/03/13 04:52:59;;;;;;;21.53;11.73;;;2.80;99.90;;;;;;5134143;27;20466;-67
2022/03/13 04:55:26;;;;;;;19.87;12.23;;;2.70;99.90;;;;;;5133242;27;20951;-67
2022/03/13 04:57:54;;;;;;;17.50;11.53;;;2.60;1.00;;;;;;5133799;27;20477;-67
2022/03/13 05:00:23;;;;;;;18.37;11.47;;;2.50;1.00;;;;;;5133798;27;20537;-67
2022/03/13 05:02:51;;;;;;;18.93;11.93;;;2.40;1.00;;;;;;5133982;27;20571;-67
2022/03/13 05:05:18;;;;;;;15.60;11.00;;;2.20;1.00;;;;;;5134134;27;20442;-67
2022/03/13 05:07:45;;;;;;;20.30;12.13;;;2.30;1.00;;;;;;5132789;27;20445;-67
2022/03/13 05:10:13;;;;;;;17.47;10.50;;;2.40;1.00;;;;;;5133223;27;20446;-67
2022/03/13 05:12:39;;;;;;;20.63;10.80;;;2.40;1.00;;;;;;5132671;27;20941;-67
2022/03/13 05:15:08;;;;;;;16.97;10.77;;;2.40;1.00;;;;;;5133368;27;20533;-67
2022/03/13 05:17:36;;;;;;;19.17;12.57;;;2.30;1.00;;;;;;5132316;27;20563;-67
2022/03/13 05:20:03;;;;;;;18.47;12.37;;;2.50;1.00;;;;;;5133772;27;21025;-67
2022/03/13 05:22:29;;;;;;;23.40;13.00;;;2.40;1.00;;;;;;5132474;27;20587;-67
2022/03/13 05:24:56;;;;;;;21.77;11.90;;;2.40;1.00;;;;;;5133778;27;20537;-67
2022/03/13 05:27:24;;;;;;;19.77;11.27;;;2.20;1.00;;;;;;5132977;27;20495;-67
2022/03/13 05:29:51;;;;;;;20.67;12.40;;;2.20;1.00;;;;;;5133843;27;20443;-67
2022/03/13 05:32:19;;;;;;;17.57;11.40;;;2.40;1.00;;;;;;5133279;27;20506;-67
2022/03/13 05:34:46;;;;;;;19.57;12.90;;;2.50;1.00;;;;;;5132225;27;20451;-67
2022/03/13 05:37:13;;;;;;;16.70;12.80;;;2.30;1.00;;;;;;5132830;27;20965;-68
2022/03/13 05:39:40;;;;;;;20.07;12.50;;;2.30;1.00;;;;;;5132193;27;20452;-67
2022/03/13 05:42:07;;;;;;;19.63;10.97;;;2.50;1.00;;;;;;5133121;27;20500;-67
2022/03/13 05:44:36;;;;;;;18.73;11.13;;;2.40;1.00;;;;;;5132597;27;20445;-68
2022/03/13 05:47:04;;;;;;;16.37;10.23;;;2.30;1.00;;;;;;5132899;27;20452;-67
2022/03/13 05:49:33;;;;;;;17.30;11.20;;;2.30;1.00;;;;;;5131920;27;20844;-67
2022/03/13 05:52:00;;;;;;;18.90;12.70;;;2.50;1.00;;;;;;5132769;27;20507;-67
2022/03/13 05:54:27;;;;;;;17.60;11.03;;;2.60;1.00;;;;;;5132261;27;20564;-68
2022/03/13 05:56:54;;;;;;;18.40;11.73;;;2.80;1.00;;;;;;5132198;27;20449;-67
2022/03/13 05:59:25;;;;;;;17.67;11.97;;;2.90;1.00;;;;;;5132316;27;20445;-67
2022/03/13 06:01:52;;;;;;;16.97;11.70;;;2.80;1.00;;;;;;5132966;27;20469;-67
2022/03/13 06:04:20;;;;;;;30.40;14.40;;;3.00;1.00;;;;;;5133285;27;20445;-67
2022/03/13 06:06:48;;;;;;;22.90;12.53;;;2.90;1.00;;;;;;5132050;27;20449;-67
2022/03/13 06:09:15;;;;;;;18.90;11.30;;;2.90;1.00;;;;;;5132290;27;20536;-67
2022/03/13 06:11:42;;;;;;;19.03;12.60;;;3.00;1.00;;;;;;5131811;27;20468;-67
2022/03/13 06:14:09;;;;;;;19.63;10.80;;;2.90;1.00;;;;;;5132678;27;20448;-68
2022/03/13 06:16:36;;;;;;;21.50;13.20;;;2.90;1.00;;;;;;5132038;27;20458;-68
2022/03/13 06:19:03;;;;;;;19.10;12.13;;;2.90;1.00;;;;;;5131928;27;20487;-68
2022/03/13 06:21:29;;;;;;;20.10;11.87;;;2.90;1.00;;;;;;5131468;27;20493;-67
2022/03/13 06:23:58;;;;;;;17.63;11.70;;;2.90;1.00;;;;;;5131942;27;20499;-67
2022/03/13 06:26:25;;;;;;;20.50;12.10;;;2.90;1.00;;;;;;5131807;27;20538;-66
2022/03/13 06:28:51;;;;;;;19.60;12.70;;;2.90;1.00;;;;;;5132078;27;20453;-67
2022/03/13 06:31:18;;;;;;;19.27;11.50;;;2.90;1.00;;;;;;5132193;27;20461;-67
2022/03/13 06:33:45;;;;;;;20.03;13.03;;;3.10;1.00;;;;;;5131167;27;20451;-67
2022/03/13 06:36:13;;;;;;;19.13;11.93;;;3.30;1.00;;;;;;5131816;27;20450;-67
2022/03/13 06:38:40;;;;;;;21.50;12.30;;;3.50;1.00;;;;;;5130793;27;20459;-67
2022/03/13 06:41:08;;;;;;;19.30;12.97;;;3.70;99.90;;;;;;5131668;27;20526;-66
2022/03/13 06:43:35;;;;;;;19.53;13.67;;;3.90;99.90;;;;;;5131771;27;20533;-67
2022/03/13 06:46:03;;;;;;;18.10;12.33;;;3.70;99.90;;;;;;5131949;27;20442;-67
2022/03/13 06:48:31;;;;;;;18.90;12.37;;;3.80;99.90;;;;;;5130700;27;20554;-67
2022/03/13 06:50:58;;;;;;;19.23;13.67;;;3.80;99.90;;;;;;5118478;28;20538;-67
2022/03/13 06:53:25;;;;;;;19.00;13.03;;;3.80;99.90;;;;;;5131593;28;20498;-67
2022/03/13 06:55:52;;;;;;;19.40;12.67;;;4.00;99.90;;;;;;5132117;28;20539;-67
2022/03/13 06:58:21;;;;;;;20.83;13.20;;;4.00;99.90;;;;;;5131222;28;20812;-67
2022/03/13 07:00:52;;;;;;;18.90;12.50;;;4.10;99.90;;;;;;5131529;28;20524;-67
2022/03/13 07:03:19;;;;;;;21.17;12.77;;;4.20;99.90;;;;;;5131839;28;20469;-66
2022/03/13 07:05:46;;;;;;;22.53;14.03;;;4.30;99.90;;;;;;5131008;28;20526;-67
2022/03/13 07:08:13;;;;;;;20.47;14.00;;;4.40;99.90;;;;;;5131511;28;20435;-67
2022/03/13 07:10:40;;;;;;;20.40;14.47;;;4.50;99.90;;;;;;5131146;28;20522;-67
2022/03/13 07:13:08;;;;;;;19.53;12.50;;;4.60;99.90;;;;;;5131767;28;20514;-67
2022/03/13 07:15:37;;;;;;;21.77;13.63;;;4.60;99.90;;;;;;5130976;28;20457;-68
2022/03/13 07:18:04;;;;;;;17.30;12.60;;;4.70;99.90;;;;;;5131437;28;20450;-67
2022/03/13 07:20:30;;;;;;;20.27;12.57;;;4.80;99.90;;;;;;5130716;28;20438;-67
2022/03/13 07:22:57;;;;;;;18.23;13.27;;;4.90;99.90;;;;;;5130911;28;20493;-67
2022/03/13 07:25:24;;;;;;;19.70;12.80;;;;;;;;;;5130978;28;20541;-67
2022/03/13 07:27:52;;;;;;;18.50;12.60;;;;;;;;;;5131539;28;20859;-67
2022/03/13 07:30:19;;;;;;;18.63;12.77;;;;;;;;;;5131919;28;20792;-67
2022/03/13 07:32:47;;;;;;;20.00;14.07;;;;;;;;;;5130840;28;20962;-67
2022/03/13 07:35:14;;;;;;;23.80;13.73;;;;;;;;;;5131866;28;20484;-68
2022/03/13 07:37:42;;;;;;;19.80;14.47;;;;;;;;;;5130751;28;20527;-68
2022/03/13 07:40:10;;;;;;;23.90;15.43;;;;;;;;;;5131508;28;20446;-67
2022/03/13 07:42:37;;;;;;;24.07;15.40;;;;;;;;;;5130656;28;20484;-66
2022/03/13 07:45:04;;;;;;;23.20;14.70;;;;;;;;;;5131278;28;20534;-67
2022/03/13 07:47:31;;;;;;;20.53;13.00;;;;;;;;;;5130467;28;20857;-67
2022/03/13 07:50:00;;;;;;;22.50;12.80;;;;;;;;;;5131548;28;20450;-67
2022/03/13 07:52:27;;;;;;;20.17;12.90;;;;;;;;;;5130207;28;20957;-67
2022/03/13 07:54:54;;;;;;;19.50;14.37;;;;;;;;;;5131416;28;20533;-67
2022/03/13 07:57:21;;;;;;;21.73;12.60;;;;;;;;;;5131162;28;20482;-67
2022/03/13 07:59:49;;;;;;;17.40;13.13;;;;;;;;;;5132294;27;20435;-67
2022/03/13 08:02:16;;;;;;;20.90;12.60;;;;;;;;;;5120868;27;20506;-67
2022/03/13 08:04:43;;;;;;;19.30;12.73;;;;;;;;;;5133895;27;20464;-68
2022/03/13 08:07:12;;;;;;;21.27;13.27;;;;;;;;;;5134936;27;20529;-66
2022/03/13 08:09:39;;;;;;;19.83;13.50;;;;;;;;;;5134363;27;20446;-68
2022/03/13 08:12:07;;;;;;;21.53;13.20;;;;;;;;;;5135199;27;20454;-67
2022/03/13 08:14:34;;;;;;;19.33;11.93;;;;;;;;;;5134560;27;20479;-67
2022/03/13 08:17:01;;;;;;;16.80;12.27;;;;;;;;;;5134259;27;20447;-68
2022/03/13 08:19:29;;;;;;;18.47;12.03;;;;;;;;;;5134418;27;20454;-67
2022/03/13 08:21:56;;;;;;;19.07;11.70;;;;;;;;;;5134460;27;20506;-68
2022/03/13 08:24:25;;;;;;;19.37;12.97;;;;;;;;;;5134713;27;20446;-68
2022/03/13 08:26:53;;;;;;;21.03;12.77;;;;;;;;;;5134860;27;20447;-67
2022/03/13 08:29:20;;;;;;;17.97;12.30;;;;;;;;;;5134208;27;20809;-68
2022/03/13 08:31:47;;;;;;;19.50;13.90;;;;;;;;;;5133829;27;20880;-67
2022/03/13 08:34:14;;;;;;;20.10;12.50;;;;;;;;;;5134047;27;20459;-67
2022/03/13 08:36:43;;;;;;;20.10;12.83;;;;;;;;;;5133871;27;20496;-68
2022/03/13 08:39:10;;;;;;;17.17;12.67;;;;;;;;;;5133519;27;20450;-68
2022/03/13 08:41:39;;;;;;;22.50;13.80;;;;;;;;;;5133451;27;20459;-67
2022/03/13 08:44:08;;;;;;;20.07;13.90;;;;;;;;;;5133988;27;20474;-68
2022/03/13 08:46:35;;;;;;;20.00;13.73;;;;;;;;;;5133220;27;20450;-67
2022/03/13 08:49:02;;;;;;;18.13;13.03;;;;;;;;;;5133739;27;20546;-68
2022/03/13 08:51:29;;;;;;;18.60;13.20;;;;;;;;;;5133735;27;20486;-68
2022/03/13 08:53:57;;;;;;;18.90;13.93;;;;;;;;;;5133874;27;20963;-68
2022/03/13 08:56:26;;;;;;;23.30;12.70;;;;;;;;;;5134136;27;20446;-68
2022/03/13 08:58:55;;;;;;;21.13;13.27;;;;;;;;;;5133809;27;20450;-68
2022/03/13 09:01:24;;;;;;;23.17;13.53;;;;;;;;;;5134314;27;20473;-68
2022/03/13 09:03:52;;;;;;;20.83;14.20;;;;;;;;;;5124398;27;20479;-68
2022/03/13 09:06:19;;;;;;;18.77;14.90;;;;;;;;;;5133600;27;20466;-69
2022/03/13 09:08:46;;;;;;;17.97;12.70;;;;;;;;;;5132863;27;20487;-68
2022/03/13 09:11:14;;;;;;;18.90;14.10;;;;;;;;;;5133403;27;20799;-68
2022/03/13 09:13:41;;;;;;;16.40;13.43;;;;;;;;;;5133287;27;20533;-68
2022/03/13 09:16:10;;;;;;;18.93;13.33;;;;;;;;;;5133643;27;20778;-68
2022/03/13 09:18:37;;;;;;;21.87;14.40;;;;;;;;;;5132638;27;20446;-68
2022/03/13 09:21:04;;;;;;;21.60;14.20;;;;;;;;;;5133079;27;20493;-68
2022/03/13 09:23:32;;;;;;;23.10;15.20;;;;;;;;;;5132879;27;20467;-67
2022/03/13 09:25:59;;;;;;;17.53;13.90;;;;;;;;;;5132844;27;20458;-67
2022/03/13 09:28:29;;;;;;;18.80;13.20;;;;;;;;;;5132553;27;20852;-68
2022/03/13 09:30:56;;;;;;;21.57;13.73;;;;;;;;;;5133772;27;20794;-68
2022/03/13 09:33:27;;;;;;;19.00;14.17;;;;;;;;;;5133620;27;20553;-67
2022/03/13 09:35:54;;;;;;;21.93;14.03;;;;;;;;;;5133602;27;20482;-68
2022/03/13 09:38:21;;;;;;;22.30;16.00;;;;;;;;;;5133158;27;20447;-68
2022/03/13 09:40:49;;;;;;;18.40;12.60;;;;;;;;;;5132169;27;20939;-67
2022/03/13 09:43:19;;;;;;;28.60;14.87;;;;;;;;;;5133164;27;20483;-67
2022/03/13 09:45:46;;;;;;;16.50;13.30;;;;;;;;;;5132429;27;20447;-68
2022/03/13 09:48:15;;;;;;;24.07;15.30;;;;;;;;;;5132265;27;20447;-68
2022/03/13 09:50:44;;;;;;;24.33;15.30;;;;;;;;;;5131800;27;20454;-68
2022/03/13 09:53:12;;;;;;;19.37;15.30;;;;;;;;;;5132932;27;20512;-69
2022/03/13 09:55:40;;;;;;;20.80;15.03;;;;;;;;;;5131701;27;20934;-68
2022/03/13 09:58:08;;;;;;;21.40;15.50;;;;;;;;;;5132531;27;20502;-68
2022/03/13 10:00:36;;;;;;;23.27;15.43;;;;;;;;;;5132121;27;20443;-68
2022/03/13 10:03:05;;;;;;;21.23;14.97;;;;;;;;;;5132425;27;20482;-68
2022/03/13 10:05:41;;;;;;;23.33;15.40;;;;;;;;;;5118983;27;20482;-68
2022/03/13 10:08:10;;;;;;;28.37;17.10;;;;;;;;;;5131941;27;20438;-69
2022/03/13 10:10:42;;;;;;;20.67;15.00;;;;;;;;;;5131306;27;20442;-69
2022/03/13 10:13:09;;;;;;;21.50;15.43;;;;;;;;;;5132646;27;20442;-69
2022/03/13 10:15:43;;;;;;;20.10;16.00;;;;;;;;;;5131819;27;20985;-67
2022/03/13 10:18:14;;;;;;;22.67;15.03;;;;;;;;;;5132215;27;20526;-67
2022/03/13 10:20:43;;;;;;;23.57;16.27;;;;;;;;;;5131986;27;20483;-68
2022/03/13 10:23:15;;;;;;;21.93;15.07;;;;;;;;;;5131817;27;20491;-69
2022/03/13 10:25:43;;;;;;;18.70;14.03;;;;;;;;;;5131735;27;20461;-67
2022/03/13 10:28:18;;;;;;;25.03;14.97;;;;;;;;;;5131963;27;20843;-67
2022/03/13 10:30:47;;;;;;;19.70;14.90;;;;;;;;;;5131494;27;20477;-67
2022/03/13 10:33:14;;;;;;;24.37;14.40;;;;;;;;;;5132147;27;20562;-69
2022/03/13 10:35:41;;;;;;;20.00;14.37;;;;;;;;;;5131221;27;20854;-69
2022/03/13 10:38:17;;;;;;;17.43;14.53;;;;;;;;;;5132038;27;20491;-67
2022/03/13 10:40:45;;;;;;;20.83;15.00;;;;;;;;;;5131359;27;20478;-68
2022/03/13 10:43:19;;;;;;;20.00;15.10;;;;;;;;;;5132173;27;20487;-68
2022/03/13 10:45:51;;;;;;;19.37;15.07;;;;;;;;;;5131208;27;20499;-68
2022/03/13 10:48:21;;;;;;;22.87;15.60;;;;;;;;;;5131779;28;20423;-69
2022/03/13 10:50:50;;;;;;;19.53;14.30;;;;;;;;;;5130623;28;20602;-68
2022/03/13 10:53:19;;;;;;;19.13;14.83;;;;;;;;;;5131278;28;20942;-67
2022/03/13 10:56:00;;;;;;;19.20;14.40;;;;;;;;;;5131301;28;20443;-68
2022/03/13 10:58:30;;;;;;;21.10;14.80;;;;;;;;;;5130671;28;20536;-68
2022/03/13 11:01:04;;;;;;;20.47;16.07;;;;;;;;;;5131802;28;20446;-68
2022/03/13 11:03:32;;;;;;;23.30;14.57;;;;;;;;;;5131154;28;20481;-68
2022/03/13 11:06:00;;;;;;;20.53;15.60;;;;;;;;;;5131634;28;20438;-68
2022/03/13 11:08:28;;;;;;;19.17;14.70;;;;;;;;;;5131033;28;20858;-67
2022/03/13 11:10:56;;;;;;;23.27;15.90;;;;;;;;;;5131403;28;20518;-67
2022/03/13 11:13:27;;;;;;;17.43;13.87;;;;;;;;;;5131792;28;20442;-67
2022/03/13 11:15:56;;;;;;;22.83;18.07;;;;;;;;;;5132014;28;20835;-68
2022/03/13 11:18:24;;;;;;;20.97;15.70;;;;;;;;;;5117583;28;20443;-68
2022/03/13 11:20:51;;;;;;;22.87;15.27;;;;;;;;;;5131169;28;20481;-67
2022/03/13 11:23:19;;;;;;;23.60;15.50;;;;;;;;;;5131702;28;20478;-67
2022/03/13 11:25:54;;;;;;;23.90;17.27;;;;;;;;;;5130420;28;20439;-68
2022/03/13 11:28:21;;;;;;;23.50;16.10;;;;;;;;;;5131120;28;21013;-69
2022/03/13 11:30:49;;;;;;;21.63;16.43;;;;;;;;;;5130650;28;20530;-69
2022/03/13 11:33:31;;;;;;;24.57;15.70;;;;;;;;;;5132467;27;20546;-67
2022/03/13 11:36:27;;;;;;;21.30;14.90;;;;;;;;;;5135083;27;20450;-68
2022/03/13 11:38:56;;;;;;;22.33;15.77;;;;;;;;;;5134945;27;20926;-67
2022/03/13 11:41:35;;;;;;;24.70;17.30;;;;;;;;;;5135709;27;20443;-69
2022/03/13 11:44:04;;;;;;;22.43;16.93;;;;;;;;;;5135215;27;21004;-67
2022/03/13 11:46:38;;;;;;;23.27;15.70;;;;;;;;;;5135017;27;20810;-69
2022/03/13 11:49:15;;;;;;;22.80;16.90;;;;;;;;;;5135684;27;20452;-68
2022/03/13 11:51:44;;;;;;;21.13;16.47;;;5.00;99.90;;;;;;5134592;27;20451;-67
2022/03/13 11:54:15;;;;;;;22.13;16.50;;;15.70;1.00;;;;;;5134993;27;20454;-67
2022/03/13 11:56:49;;;;;;;26.37;17.53;;;15.50;1.00;;;;;;5133971;27;20455;-67
2022/03/13 11:59:18;;;;;;;22.50;17.10;;;15.30;1.00;;;;;;5135450;27;20510;-69
2022/03/13 12:01:48;;;;;;;23.80;15.97;;;15.50;1.00;;;;;;5134293;27;20529;-68
2022/03/13 12:04:26;;;;;;;25.27;19.00;;;15.80;1.00;;;;;;5134816;27;20486;-68
2022/03/13 12:06:56;;;;;;;23.00;16.87;;;15.50;1.00;;;;;;5134592;27;20438;-68
2022/03/13 12:09:42;;;;;;;23.77;16.47;;;15.50;1.00;;;;;;5135362;27;20604;-69
2022/03/13 12:12:13;;;;;;;23.07;16.57;;;15.60;1.00;;;;;;5122585;27;20443;-69
2022/03/13 12:14:55;;;;;;;26.13;16.83;;;15.70;1.00;;;;;;5133647;27;20442;-68
2022/03/13 12:17:25;;;;;;;22.10;15.50;;;16.20;1.00;;;;;;5134407;27;20445;-68
2022/03/13 12:19:54;;;;;;;26.07;16.33;;;16.40;1.00;;;;;;5134378;27;20430;-68
2022/03/13 12:22:25;;;;;;;20.53;13.73;;;16.40;1.00;;;;;;5134507;27;20478;-68
2022/03/13 12:24:54;;;;;;;23.27;16.57;;;16.40;1.00;;;;;;5134443;27;20790;-67
2022/03/13 12:27:24;;;;;;;23.17;16.33;;;16.40;1.00;;;;;;5134550;27;20476;-68
2022/03/13 12:29:55;;;;;;;20.03;14.57;;;16.20;1.00;;;;;;5120945;27;20431;-68
2022/03/13 12:32:23;;;;;;;22.20;16.63;;;16.60;1.00;;;;;;5134635;27;20499;-68
2022/03/13 12:34:54;;;;;;;24.43;16.53;;;16.50;1.00;;;;;;5134419;27;20450;-68
2022/03/13 12:37:21;;;;;;;23.90;17.17;;;16.40;1.00;;;;;;5133816;27;20806;-67
2022/03/13 12:39:51;;;;;;;21.97;15.43;;;16.40;1.00;;;;;;5133467;27;20442;-69
2022/03/13 12:42:24;;;;;;;23.17;17.27;;;16.40;1.00;;;;;;5133780;27;20898;-67
2022/03/13 12:45:06;;;;;;;23.30;16.97;;;16.20;1.00;;;;;;5133295;27;20547;-68
2022/03/13 12:47:37;;;;;;;22.13;16.80;;;16.40;1.00;;;;;;5133271;27;20457;-67
2022/03/13 12:50:05;;;;;;;23.50;16.30;;;16.30;1.00;;;;;;5134151;27;20792;-69
2022/03/13 12:52:34;;;;;;;21.23;15.27;;;16.40;1.00;;;;;;5133499;27;20454;-67
2022/03/13 12:55:02;;;;;;;22.80;15.87;;;16.60;1.00;;;;;;5133409;27;20450;-67
2022/03/13 12:57:30;;;;;;;22.77;16.63;;;16.50;1.00;;;;;;5132704;27;20478;-68
2022/03/13 12:59:57;;;;;;;22.50;15.60;;;16.80;1.00;;;;;;5133582;27;20525;-68
2022/03/13 13:02:27;;;;;;;20.67;16.83;;;16.70;1.00;;;;;;5133497;27;20457;-67
2022/03/13 13:04:55;;;;;;;22.27;16.20;;;16.70;1.00;;;;;;5133870;27;20573;-67
2022/03/13 13:07:25;;;;;;;22.50;16.10;;;16.70;1.00;;;;;;5133511;27;20548;-67
2022/03/13 13:09:53;;;;;;;24.30;18.10;;;16.70;1.00;;;;;;5133873;27;20466;-67
2022/03/13 13:12:23;;;;;;;23.20;16.47;;;16.80;1.00;;;;;;5133856;27;20529;-68
2022/03/13 13:14:51;;;;;;;23.60;18.30;;;16.90;1.00;;;;;;5133508;27;20796;-67
2022/03/13 13:17:21;;;;;;;24.27;16.87;;;17.00;1.00;;;;;;5133274;27;20442;-67
2022/03/13 13:19:50;;;;;;;20.87;15.90;;;17.10;1.00;;;;;;5132655;27;20471;-67